Time;durP1;ratioP1;P1;durP2;ratioP2;P2;SDS_P1;SDS_P2;PMS_P1;PMS_P2;Temp;Humidity;BMP_temperature;BMP_pressure;BME280_temperature;BME280_humidity;BME280_pressure;Samples;Min_cycle;Max_cycle;Signal;HPM_P1;HPM_P2
2021/12/28 00:01:19;;;;;;;54.27;17.83;;;;;;;-8.83;79.91;99962.16;4199203;28;20237;-65
2021/12/28 00:03:46;;;;;;;58.43;17.30;;;;;;;-8.84;79.81;99966.50;4178029;28;22237;-65
2021/12/28 00:06:16;;;;;;;53.73;17.30;;;;;;;-8.93;79.77;99952.06;4196098;28;21273;-67
2021/12/28 00:08:43;;;;;;;65.33;17.30;;;;;;;-8.94;80.03;99955.53;4189401;28;20235;-65
2021/12/28 00:11:10;;;;;;;59.23;16.63;;;;;;;-8.97;80.40;99955.59;4189202;28;20246;-66
2021/12/28 00:13:37;;;;;;;54.63;17.63;;;;;;;-8.98;80.46;99959.06;4207137;28;20237;-65
2021/12/28 00:16:28;;;;;;;55.00;18.87;;;;;;;-9.00;80.77;99955.66;4183969;28;21234;-64
2021/12/28 00:18:55;;;;;;;66.47;20.07;;;;;;;-9.02;80.70;99949.69;4200634;28;21847;-66
2021/12/28 00:21:21;;;;;;;56.07;18.73;;;;;;;-9.06;81.23;99942.06;4198923;28;20228;-64
2021/12/28 00:23:48;;;;;;;52.83;18.47;;;;;;;-9.06;81.11;99945.50;4197638;28;21676;-65
2021/12/28 00:26:15;;;;;;;53.40;17.80;;;;;;;-9.07;81.60;99941.22;4204862;28;20225;-65
2021/12/28 00:28:43;;;;;;;59.20;17.80;;;;;;;-9.13;81.62;99931.91;4187978;28;20251;-65
2021/12/28 00:31:11;;;;;;;57.00;17.73;;;;;;;-9.14;82.10;99937.09;4210358;28;20629;-69
2021/12/28 00:33:38;;;;;;;54.77;19.33;;;;;;;-9.14;81.91;99943.09;4199384;28;21651;-65
2021/12/28 00:36:04;;;;;;;57.00;17.23;;;;;;;-9.11;82.46;99942.16;4198899;28;20225;-65
2021/12/28 00:38:32;;;;;;;55.07;18.73;;;;;;;-9.18;82.38;99940.59;4193947;28;20942;-66
2021/12/28 00:41:00;;;;;;;59.60;17.80;;;;;;;-9.18;82.43;99946.63;4185854;28;20232;-65
2021/12/28 00:43:29;;;;;;;54.77;17.77;;;;;;;-9.17;82.87;99939.75;4191331;28;22497;-66
2021/12/28 00:45:56;;;;;;;53.30;18.60;;;;;;;-9.22;82.67;99936.41;4187289;28;20295;-64
2021/12/28 00:48:22;;;;;;;66.57;19.83;;;;;;;-9.24;82.84;99943.34;4196883;28;20236;-66
2021/12/28 00:50:49;;;;;;;55.93;18.80;;;;;;;-9.22;83.32;99946.72;4182002;28;20236;-65
2021/12/28 00:53:15;;;;;;;60.13;18.63;;;;;;;-9.28;83.46;99945.09;4184292;28;20333;-65
2021/12/28 00:55:42;;;;;;;55.90;17.90;;;;;;;-9.27;83.38;99949.41;4186961;28;20231;-64
2021/12/28 00:58:09;;;;;;;62.57;19.60;;;;;;;-9.31;83.49;99942.59;4197879;28;20275;-66
2021/12/28 01:00:37;;;;;;;58.90;18.93;;;;;;;-9.31;83.68;99944.34;4202230;28;20428;-65
2021/12/28 01:03:06;;;;;;;57.00;19.60;;;;;;;-9.32;84.25;99945.22;4190329;28;20727;-65
2021/12/28 01:05:34;;;;;;;58.43;19.37;;;;;;;-9.25;83.43;99939.88;4199717;28;21679;-65
2021/12/28 01:08:00;;;;;;;57.17;18.83;;;;;;;-9.31;83.57;99950.34;4195356;28;20228;-66
2021/12/28 01:10:38;;;;;;;57.73;18.00;;;;;;;-9.36;84.22;99936.72;4188907;28;20236;-64
2021/12/28 01:13:05;;;;;;;48.30;17.17;;;;;;;-9.37;84.07;99941.00;4187566;28;20277;-64
2021/12/28 01:15:39;;;;;;;55.07;19.03;;;;;;;-9.37;84.71;99940.16;4201605;28;21256;-65
2021/12/28 01:18:10;;;;;;;63.73;18.27;;;;;;;-9.40;84.79;99937.66;4200725;28;22247;-66
2021/12/28 01:20:37;;;;;;;59.03;18.57;;;;;;;-9.44;84.55;99938.59;4203820;28;22245;-66
2021/12/28 01:23:04;;;;;;;57.57;18.60;;;;;;;-9.44;84.54;99939.44;4187719;28;22380;-66
2021/12/28 01:25:30;;;;;;;59.73;19.53;;;;;;;-9.47;85.25;99934.34;4200415;28;20278;-67
2021/12/28 01:27:57;;;;;;;64.90;20.30;;;;;;;-9.43;85.21;99922.28;4211056;28;20252;-66
2021/12/28 01:30:26;;;;;;;52.40;19.00;;;;;;;-9.43;85.03;99930.00;4196888;28;20235;-64
2021/12/28 01:32:53;;;;;;;62.60;19.97;;;;;;;-9.42;85.22;99924.78;4185388;28;20339;-64
2021/12/28 01:35:21;;;;;;;55.10;18.20;;;;;;;-9.44;85.39;99929.13;4200718;28;20232;-66
2021/12/28 01:37:49;;;;;;;59.70;18.40;;;;;;;-9.46;85.13;99930.88;4194098;28;20663;-64
2021/12/28 01:40:19;;;;;;;61.50;19.87;;;;;;;-9.43;85.73;99920.53;4194329;28;21275;-64
2021/12/28 01:42:56;;;;;;;57.80;19.00;;;;;;;-9.45;85.52;99922.28;4198141;28;20235;-67
2021/12/28 01:45:31;;;;;;;57.27;19.77;;;;;;;-9.47;85.39;99921.47;4218854;28;22978;-66
2021/12/28 01:47:58;;;;;;;51.13;18.20;;;;;;;-9.49;85.70;99920.66;4198996;28;20223;-64
2021/12/28 01:50:24;;;;;;;54.17;19.20;;;;;;;-9.50;85.41;99918.13;4201158;28;20362;-66
2021/12/28 01:52:51;;;;;;;57.60;19.97;;;;;;;-9.51;85.59;99914.69;4213146;28;20310;-66
2021/12/28 01:55:17;;;;;;;55.87;18.80;;;;;;;-9.49;85.69;99918.06;4206574;28;20296;-65
2021/12/28 01:57:44;;;;;;;56.83;19.50;;;;;;;-9.47;86.22;99913.75;4190408;28;20238;-65
2021/12/28 02:00:11;;;;;;;58.20;17.80;;;;;;;-9.47;85.74;99912.91;4197428;28;20317;-66
2021/12/28 02:02:38;;;;;;;54.27;18.17;;;;;;;-9.49;85.99;99910.34;4203911;28;20303;-66
2021/12/28 02:05:05;;;;;;;55.77;17.73;;;;;;;-9.47;86.14;99908.59;4174770;28;20301;-65
2021/12/28 02:07:32;;;;;;;60.17;17.87;;;;;;;-9.46;85.46;99914.59;4198278;28;22375;-66
2021/12/28 02:09:58;;;;;;;54.90;19.60;;;;;;;-9.50;86.21;99915.56;4198637;28;20239;-66
2021/12/28 02:12:28;;;;;;;51.13;18.57;;;;;;;-9.47;85.95;99913.75;4213549;28;20243;-66
2021/12/28 02:14:55;;;;;;;61.90;18.90;;;;;;;-9.55;86.37;99910.50;4208026;28;20243;-65
2021/12/28 02:17:22;;;;;;;63.37;19.33;;;;;;;-9.54;86.40;99903.63;4196133;28;20356;-64
2021/12/28 02:19:48;;;;;;;60.27;19.93;;;;;;;-9.53;86.71;99910.44;4199826;28;20239;-65
2021/12/28 02:22:14;;;;;;;57.57;18.83;;;;;;;-9.52;86.79;99910.44;4190537;28;23739;-65
2021/12/28 02:24:41;;;;;;;60.60;19.27;;;;;;;-9.50;86.27;99911.25;4195942;28;20232;-65
2021/12/28 02:27:07;;;;;;;68.80;19.07;;;;;;;-9.53;86.95;99897.56;4197179;28;20414;-65
2021/12/28 02:29:34;;;;;;;54.03;18.27;;;;;;;-9.48;86.78;99888.88;4199662;28;23003;-67
2021/12/28 02:32:00;;;;;;;56.33;19.20;;;;;;;-9.49;86.59;99896.63;4202666;28;20244;-66
2021/12/28 02:34:27;;;;;;;60.00;18.77;;;;;;;-9.49;86.78;99886.31;4212049;28;21620;-64
2021/12/28 02:36:54;;;;;;;54.70;18.57;;;;;;;-9.49;87.26;99876.03;4215109;28;20350;-65
2021/12/28 02:39:20;;;;;;;56.60;18.67;;;;;;;-9.48;87.32;99886.31;4187073;28;20310;-64
2021/12/28 02:41:47;;;;;;;52.57;18.07;;;;;;;-9.44;87.03;99885.34;4203167;28;20228;-64
2021/12/28 02:44:13;;;;;;;64.37;19.40;;;;;;;-9.41;87.00;99877.56;4188786;28;20249;-66
2021/12/28 02:46:40;;;;;;;56.00;17.87;;;;;;;-9.45;87.23;99875.94;4200437;28;22830;-64
2021/12/28 02:49:07;;;;;;;59.10;19.73;;;;;;;-9.48;87.54;99865.69;4216019;28;21248;-64
2021/12/28 02:51:33;;;;;;;57.17;20.13;;;;;;;-9.49;87.46;99864.00;4197213;28;20368;-64
2021/12/28 02:54:00;;;;;;;58.13;18.17;;;;;;;-9.39;87.34;99862.94;4212773;28;20233;-66
2021/12/28 02:56:26;;;;;;;54.03;17.27;;;;;;;-9.44;87.44;99848.44;4200117;28;20243;-64
2021/12/28 02:58:53;;;;;;;58.63;18.07;;;;;;;-9.46;87.52;99845.88;4190124;28;20954;-65
2021/12/28 03:01:24;;;;;;;63.73;19.23;;;;;;;-9.44;87.36;99846.69;4185470;28;20248;-65
2021/12/28 03:03:54;;;;;;;57.43;19.30;;;;;;;-9.39;87.51;99862.94;4187634;28;21441;-65
2021/12/28 03:06:22;;;;;;;64.73;18.40;;;;;;;-9.44;87.24;99862.16;4167559;28;20294;-66
2021/12/28 03:08:54;;;;;;;63.10;20.53;;;;;;;-9.46;87.20;99852.78;4189777;28;20240;-65
2021/12/28 03:11:23;;;;;;;61.63;20.17;;;;;;;-9.47;88.02;99849.34;4168738;28;20252;-63
2021/12/28 03:13:53;;;;;;;61.10;19.07;;;;;;;-9.46;87.81;99845.88;4188469;28;20247;-65
2021/12/28 03:16:22;;;;;;;54.20;18.67;;;;;;;-9.46;87.98;99852.78;4189171;28;20273;-64
2021/12/28 03:18:48;;;;;;;59.23;19.93;;;;;;;-9.47;88.20;99846.78;4186823;28;23443;-65
2021/12/28 03:21:17;;;;;;;50.73;18.70;;;;;;;-9.46;88.11;99822.72;4187982;28;20624;-65
2021/12/28 03:23:44;;;;;;;57.83;20.87;;;;;;;-9.45;88.24;99834.72;4184277;28;20233;-65
2021/12/28 03:26:12;;;;;;;56.40;20.10;;;;;;;-9.43;88.32;99838.13;4189228;28;22249;-66
2021/12/28 03:28:40;;;;;;;57.77;19.20;;;;;;;-9.30;88.30;99832.69;4191939;28;20700;-64
2021/12/28 03:31:09;;;;;;;55.00;19.23;;;;;;;-9.29;88.16;99850.69;4193034;28;20275;-65
2021/12/28 03:33:37;;;;;;;57.90;19.93;;;;;;;-9.37;88.11;99843.09;4187396;28;20233;-65
2021/12/28 03:36:05;;;;;;;56.63;20.10;;;;;;;-9.32;88.15;99839.59;4178183;28;20233;-65
2021/12/28 03:38:33;;;;;;;67.60;20.77;;;;;;;-9.35;88.24;99840.50;4173344;28;20237;-63
2021/12/28 03:41:00;;;;;;;55.47;20.00;;;;;;;-9.35;88.38;99832.78;4185406;28;20233;-65
2021/12/28 03:43:26;;;;;;;56.53;19.10;;;;;;;-9.32;88.52;99829.28;4186792;28;25916;-65
2021/12/28 03:45:53;;;;;;;61.97;19.60;;;;;;;-9.34;88.36;99821.59;4185887;28;22505;-63
2021/12/28 03:48:20;;;;;;;48.77;17.77;;;;;;;-9.29;88.40;99824.91;4174172;28;20356;-65
2021/12/28 03:50:46;;;;;;;58.93;20.07;;;;;;;-9.27;88.33;99818.00;4199704;28;20232;-65
2021/12/28 03:53:13;;;;;;;51.50;18.73;;;;;;;-9.23;88.51;99826.50;4190092;28;20260;-65
2021/12/28 03:55:40;;;;;;;64.43;19.83;;;;;;;-9.24;88.39;99817.09;4184474;28;20236;-64
2021/12/28 03:58:07;;;;;;;58.73;19.63;;;;;;;-9.24;88.49;99827.38;4189228;28;20252;-63
2021/12/28 04:00:37;;;;;;;56.67;19.90;;;;;;;-9.31;88.46;99811.22;4181227;28;20235;-64
2021/12/28 04:03:04;;;;;;;54.57;19.80;;;;;;;-9.30;88.74;99817.22;4195878;28;24287;-65
2021/12/28 04:05:30;;;;;;;67.93;19.73;;;;;;;-9.37;88.41;99811.34;4203550;28;21941;-65
2021/12/28 04:07:57;;;;;;;56.60;19.77;;;;;;;-9.38;88.91;99810.50;4188973;28;20275;-66
2021/12/28 04:10:31;;;;;;;57.97;19.30;;;;;;;-9.43;88.85;99812.34;4206493;28;20248;-66
2021/12/28 04:12:58;;;;;;;56.33;20.20;;;;;;;-9.44;89.01;99804.66;4188091;28;23606;-66
2021/12/28 04:15:25;;;;;;;58.00;20.33;;;;;;;-9.42;89.52;99811.47;4170802;28;20284;-65
2021/12/28 04:17:51;;;;;;;62.77;20.37;;;;;;;-9.38;88.80;99810.50;4209776;28;20253;-64
2021/12/28 04:20:19;;;;;;;60.47;20.43;;;;;;;-9.43;89.22;99802.06;4188193;28;22111;-63
2021/12/28 04:22:46;;;;;;;63.53;21.93;;;;;;;-9.40;89.31;99807.13;4179369;28;20287;-64
2021/12/28 04:25:14;;;;;;;62.00;20.83;;;;;;;-9.43;89.47;99804.63;4178125;28;20295;-64
2021/12/28 04:27:42;;;;;;;61.70;19.97;;;;;;;-9.43;89.50;99796.91;4185899;28;22115;-64
2021/12/28 04:30:11;;;;;;;60.97;20.37;;;;;;;-9.39;89.51;99795.97;4185777;28;22253;-64
2021/12/28 04:32:37;;;;;;;54.93;19.93;;;;;;;-9.47;89.70;99779.81;4169856;28;20672;-64
2021/12/28 04:35:05;;;;;;;63.20;21.00;;;;;;;-9.49;90.04;99794.47;4164361;28;20241;-65
2021/12/28 04:37:33;;;;;;;63.97;19.93;;;;;;;-9.53;90.05;99792.81;4192018;28;20314;-64
2021/12/28 04:40:00;;;;;;;70.80;21.83;;;;;;;-9.52;90.02;99791.13;4184741;28;22096;-64
2021/12/28 04:42:28;;;;;;;61.73;21.20;;;;;;;-9.53;90.09;99794.56;4189810;28;20698;-64
2021/12/28 04:44:56;;;;;;;60.83;21.23;;;;;;;-9.57;90.45;99784.34;4180877;28;20649;-65
2021/12/28 04:47:22;;;;;;;59.50;20.13;;;;;;;-9.57;90.93;99797.22;4199385;28;20524;-66
2021/12/28 04:49:49;;;;;;;65.73;21.87;;;;;;;-9.51;90.59;99798.78;4177328;28;20231;-65
2021/12/28 04:52:16;;;;;;;64.00;21.53;;;;;;;-9.57;90.89;99804.94;4187343;28;22297;-65
2021/12/28 04:54:43;;;;;;;63.97;21.03;;;;;;;-9.56;90.82;99803.22;4204368;28;22240;-63
2021/12/28 04:57:09;;;;;;;63.17;21.23;;;;;;;-9.52;91.13;99807.41;4186837;28;20363;-65
2021/12/28 04:59:36;;;;;;;60.63;20.27;;;;;;;-9.54;91.02;99787.72;4177910;28;24093;-64
2021/12/28 05:02:03;;;;;;;58.43;20.73;;;;;;;-9.50;91.32;99795.34;4190661;28;20696;-63
2021/12/28 05:04:29;;;;;;;55.57;21.87;;;;;;;-9.46;91.06;99786.66;4185591;28;20243;-64
2021/12/28 05:06:56;;;;;;;58.87;20.60;;;;;;;-9.44;91.15;99794.34;4186690;28;20296;-66
2021/12/28 05:09:22;;;;;;;64.57;20.77;;;;;;;-9.47;91.24;99792.69;4180523;28;23442;-64
2021/12/28 05:11:50;;;;;;;49.40;18.93;;;;;;;-9.49;91.43;99807.34;4185412;28;20307;-65
2021/12/28 05:14:18;;;;;;;60.63;21.13;;;;;;;-9.44;91.52;99804.66;4199643;28;21254;-64
2021/12/28 05:16:45;;;;;;;62.20;19.67;;;;;;;-9.40;91.27;99811.44;4187278;28;20235;-65
2021/12/28 05:19:11;;;;;;;58.47;18.83;;;;;;;-9.37;91.42;99817.34;4191043;28;20341;-65
2021/12/28 05:21:38;;;;;;;53.47;18.80;;;;;;;-9.32;91.36;99809.50;4185466;28;21414;-65
2021/12/28 05:24:05;;;;;;;60.30;20.57;;;;;;;-9.31;92.04;99805.22;4181906;28;20235;-66
2021/12/28 05:26:32;;;;;;;67.00;20.50;;;;;;;-9.30;91.71;99806.91;4187426;28;25797;-64
2021/12/28 05:28:59;;;;;;;64.57;21.27;;;;;;;-9.29;91.80;99799.16;4186930;28;22702;-64
2021/12/28 05:31:27;;;;;;;60.13;21.37;;;;;;;-9.23;92.09;99798.16;4191482;28;20427;-64
2021/12/28 05:33:55;;;;;;;59.80;20.67;;;;;;;-9.19;91.79;99805.78;4189127;28;22927;-64
2021/12/28 05:36:22;;;;;;;56.53;20.27;;;;;;;-9.15;91.77;99802.25;4201550;28;20309;-66
2021/12/28 05:38:49;;;;;;;58.37;20.47;;;;;;;-9.06;91.97;99795.16;4182754;28;21793;-65
2021/12/28 05:41:16;;;;;;;52.43;19.33;;;;;;;-8.98;91.74;99803.56;4186510;28;20293;-64
2021/12/28 05:43:42;;;;;;;63.67;20.83;;;;;;;-8.93;91.67;99806.88;4185860;28;20471;-65
2021/12/28 05:46:09;;;;;;;61.90;20.60;;;;;;;-8.87;91.39;99809.31;4183593;28;21309;-66
2021/12/28 05:48:36;;;;;;;57.77;20.73;;;;;;;-8.84;91.52;99798.06;4196676;28;20240;-64
2021/12/28 05:51:02;;;;;;;66.17;21.63;;;;;;;-8.80;91.11;99795.38;4184311;28;20240;-66
2021/12/28 05:53:29;;;;;;;65.70;21.73;;;;;;;-8.77;90.96;99790.13;4195182;28;20247;-67
2021/12/28 05:55:55;;;;;;;51.57;19.47;;;;;;;-8.68;91.11;99796.78;4176674;28;20240;-65
2021/12/28 05:58:22;;;;;;;60.27;21.53;;;;;;;-8.68;91.02;99803.69;4189210;28;20228;-65
2021/12/28 06:00:48;;;;;;;62.93;22.80;;;;;;;-8.70;90.92;99803.72;4198620;28;20313;-66
2021/12/28 06:03:15;;;;;;;56.77;19.67;;;;;;;-8.65;91.61;99814.75;4195882;28;20319;-65
2021/12/28 06:05:42;;;;;;;64.73;20.93;;;;;;;-8.59;90.97;99822.34;4197455;28;20342;-65
2021/12/28 06:08:08;;;;;;;52.83;20.27;;;;;;;-8.52;91.14;99821.28;4187589;28;20327;-64
2021/12/28 06:10:55;;;;;;;65.57;21.17;;;;;;;-8.52;90.84;99813.56;4194551;28;20244;-66
2021/12/28 06:13:23;;;;;;;60.50;20.47;;;;;;;-8.50;91.13;99816.06;4182629;28;20232;-67
2021/12/28 06:15:50;;;;;;;64.43;20.97;;;;;;;-8.47;91.31;99802.25;4176024;28;20328;-66
2021/12/28 06:18:17;;;;;;;60.43;21.07;;;;;;;-8.46;90.92;99811.69;4193689;28;20232;-66
2021/12/28 06:20:43;;;;;;;62.37;22.33;;;;;;;-8.43;91.14;99814.19;4190501;28;20249;-65
2021/12/28 06:23:11;;;;;;;59.03;20.30;;;;;;;-8.39;91.62;99805.44;4192238;28;20233;-65
2021/12/28 06:25:39;;;;;;;61.23;20.80;;;;;;;-8.38;91.37;99807.13;4185195;28;20256;-65
2021/12/28 06:28:05;;;;;;;59.23;20.87;;;;;;;-8.37;91.21;99803.66;4186180;28;21659;-64
2021/12/28 06:30:33;;;;;;;54.10;20.47;;;;;;;-8.31;91.51;99795.75;4187462;28;20232;-66
2021/12/28 06:33:00;;;;;;;54.23;20.00;;;;;;;-8.32;91.16;99794.91;4192556;28;22176;-66
2021/12/28 06:35:27;;;;;;;59.40;21.47;;;;;;;-8.30;91.41;99781.97;4191338;28;21506;-64
2021/12/28 06:37:53;;;;;;;59.10;20.83;;;;;;;-8.28;91.48;99785.34;4182431;28;23363;-65
2021/12/28 06:40:20;;;;;;;54.63;20.57;;;;;;;-8.22;91.41;99789.50;4197247;28;20266;-65
2021/12/28 06:42:46;;;;;;;64.07;21.97;;;;;;;-8.25;91.61;99789.59;4208849;28;20239;-66
2021/12/28 06:45:13;;;;;;;56.63;20.17;;;;;;;-8.20;92.16;99788.56;4179362;28;20239;-67
2021/12/28 06:47:40;;;;;;;60.47;21.03;;;;;;;-8.16;91.62;99776.44;4191044;28;20312;-66
2021/12/28 06:50:07;;;;;;;56.20;21.87;;;;;;;-8.14;91.42;99797.88;4201536;28;20236;-64
2021/12/28 06:52:34;;;;;;;54.43;20.20;;;;;;;-8.15;91.44;99802.16;4186972;28;20298;-67
2021/12/28 06:55:01;;;;;;;68.47;20.40;;;;;;;-8.14;91.91;99816.78;4190278;28;21770;-65
2021/12/28 06:57:27;;;;;;;59.20;22.50;;;;;;;-8.11;91.64;99814.09;4193943;28;20485;-66
2021/12/28 06:59:54;;;;;;;53.07;20.07;;;;;;;-8.02;91.62;99817.34;4183841;28;20456;-66
2021/12/28 07:02:20;;;;;;;66.03;21.40;;;;;;;-7.98;91.46;99803.44;4185954;28;20298;-67
2021/12/28 07:04:47;;;;;;;55.67;20.70;;;;;;;-8.05;91.52;99810.53;4187202;28;20245;-64
2021/12/28 07:07:14;;;;;;;58.47;21.80;;;;;;;-8.02;91.51;99810.44;4181160;28;21224;-64
2021/12/28 07:09:41;;;;;;;53.03;20.37;;;;;;;-7.98;91.42;99814.63;4184490;28;20236;-65
2021/12/28 07:12:08;;;;;;;60.23;22.10;;;;;;;-7.93;91.38;99806.75;4188028;28;22025;-64
2021/12/28 07:14:35;;;;;;;58.47;20.60;;;;;;;-7.93;91.47;99809.31;4191540;28;20241;-65
2021/12/28 07:17:01;;;;;;;59.97;19.60;;;;;;;-7.93;91.48;99806.75;4181932;28;20248;-65
2021/12/28 07:19:28;;;;;;;61.00;20.13;;;;;;;-7.86;91.90;99808.25;4191844;28;20331;-64
2021/12/28 07:21:55;;;;;;;56.23;20.73;;;;;;;-7.86;91.79;99803.09;4194113;28;20244;-63
2021/12/28 07:24:22;;;;;;;58.23;21.20;;;;;;;-7.90;91.92;99792.00;4191282;28;20233;-64
2021/12/28 07:26:48;;;;;;;59.13;21.70;;;;;;;-7.88;92.00;99794.53;4207393;28;20232;-63
2021/12/28 07:29:15;;;;;;;54.33;20.40;;;;;;;-7.89;91.93;99798.88;4166553;28;20240;-66
2021/12/28 07:31:42;;;;;;;61.97;22.37;;;;;;;-7.87;92.43;99796.22;4185253;28;20394;-64
2021/12/28 07:34:09;;;;;;;61.90;21.67;;;;;;;-7.82;92.00;99791.75;4183055;28;20229;-66
2021/12/28 07:36:35;;;;;;;61.60;21.70;;;;;;;-7.77;92.43;99786.47;4191665;28;21652;-67
2021/12/28 07:39:03;;;;;;;56.87;21.57;;;;;;;-7.73;92.21;99782.91;4209674;28;20244;-63
2021/12/28 07:41:29;;;;;;;58.57;21.97;;;;;;;-7.72;92.13;99779.44;4183213;28;20237;-64
2021/12/28 07:43:57;;;;;;;66.80;21.00;;;;;;;-7.70;92.04;99778.50;4189930;28;21304;-63
2021/12/28 07:46:23;;;;;;;57.60;20.97;;;;;;;-7.62;92.32;99769.66;4178897;28;20350;-67
2021/12/28 07:48:50;;;;;;;58.20;21.37;;;;;;;-7.56;92.29;99782.38;4200748;28;20233;-62
2021/12/28 07:51:16;;;;;;;52.53;19.23;;;;;;;-7.51;92.08;99763.28;4188942;28;25380;-65
2021/12/28 07:53:43;;;;;;;63.37;21.77;;;;;;;-7.41;91.72;99776.75;4202760;28;21229;-62
2021/12/28 07:56:09;;;;;;;63.00;22.20;;;;;;;-7.39;91.69;99771.53;4185392;28;20371;-62
2021/12/28 07:58:36;;;;;;;59.03;22.67;;;;;;;-7.45;91.90;99777.72;4205521;28;20296;-66
2021/12/28 08:01:03;;;;;;;65.33;23.07;;;;;;;-7.39;91.77;99772.38;4201929;28;20229;-67
2021/12/28 08:03:29;;;;;;;67.57;23.00;;;;;;;-7.34;91.98;99773.06;4208607;28;20296;-64
2021/12/28 08:05:56;;;;;;;62.00;23.87;;;;;;;-7.34;92.09;99775.66;4191028;28;20384;-66
2021/12/28 08:08:22;;;;;;;60.27;22.73;;;;;;;-7.32;92.03;99767.88;4190655;28;20228;-65
2021/12/28 08:10:49;;;;;;;58.70;21.83;;;;;;;-7.29;91.69;99771.19;4181754;28;20351;-65
2021/12/28 08:13:16;;;;;;;66.27;25.37;;;;;;;-7.31;92.22;99765.22;4169807;28;20237;-63
2021/12/28 08:15:43;;;;;;;65.60;23.90;;;;;;;-7.26;91.89;99763.34;4185189;28;21344;-67
2021/12/28 08:18:10;;;;;;;62.23;22.37;;;;;;;-7.15;91.89;99764.72;4187245;28;20240;-64
2021/12/28 08:20:37;;;;;;;65.80;23.53;;;;;;;-7.09;91.96;99759.38;4203821;28;20280;-66
2021/12/28 08:23:03;;;;;;;55.80;22.13;;;;;;;-7.10;91.11;99763.66;4183289;28;20244;-63
2021/12/28 08:25:30;;;;;;;62.73;22.83;;;;;;;-7.08;91.01;99758.47;4194409;28;20327;-63
2021/12/28 08:27:58;;;;;;;70.03;21.97;;;;;;;-7.11;90.57;99767.16;4199623;28;20237;-65
2021/12/28 08:30:24;;;;;;;67.33;23.07;;;;;;;-7.15;90.90;99772.50;4192124;28;20381;-65
2021/12/28 08:32:51;;;;;;;58.63;21.33;;;;;;;-7.22;91.05;99769.25;4205037;28;20889;-68
2021/12/28 08:35:18;;;;;;;56.40;21.20;;;;;;;-7.18;91.26;99775.19;4185385;28;21561;-65
2021/12/28 08:37:45;;;;;;;58.53;22.90;;;;;;;-7.15;91.02;99780.25;4177429;28;20237;-66
2021/12/28 08:40:16;;;;;;;57.53;21.27;;;;;;;-7.03;91.38;99774.66;4189048;28;20505;-52
2021/12/28 08:42:43;;;;;;;54.80;22.27;;;;;;;-6.72;92.16;99777.09;4205525;28;21356;-66
2021/12/28 08:45:10;;;;;;;56.37;21.07;;;;;;;-6.91;90.26;99766.50;4179582;28;20442;-64
2021/12/28 08:47:37;;;;;;;56.10;21.20;;;;;;;-6.96;90.49;99757.22;4191459;28;20263;-66
2021/12/28 08:50:06;;;;;;;56.47;21.53;;;;;;;-7.10;90.99;99752.50;4174416;28;21702;-63
2021/12/28 08:52:33;;;;;;;61.60;23.20;;;;;;;-7.15;91.30;99754.41;4186732;28;20336;-67
2021/12/28 08:55:00;;;;;;;56.70;20.67;;;;;;;-7.08;91.11;99745.53;4187838;28;20710;-65
2021/12/28 08:57:27;;;;;;;59.83;22.70;;;;;;;-7.09;91.09;99746.44;4211549;28;20420;-64
2021/12/28 08:59:53;;;;;;;63.33;22.37;;;;;;;-7.11;91.29;99753.41;4219556;28;20260;-65
2021/12/28 09:02:20;;;;;;;62.40;22.60;;;;;;;-7.11;91.23;99753.41;4198529;28;20290;-64
2021/12/28 09:04:46;;;;;;;66.83;23.23;;;;;;;-7.06;91.37;99767.00;4194957;28;20365;-66
2021/12/28 09:07:14;;;;;;;59.83;23.83;;;;;;;-7.11;91.43;99749.06;4214367;28;20621;-64
2021/12/28 09:09:40;;;;;;;59.80;22.40;;;;;;;-7.05;91.26;99740.25;4196050;28;20241;-65
2021/12/28 09:12:07;;;;;;;54.77;22.57;;;;;;;-7.04;91.29;99739.38;4214831;28;20339;-65
2021/12/28 09:14:34;;;;;;;68.03;23.10;;;;;;;-7.04;91.47;99731.63;4191679;28;22140;-67
2021/12/28 09:17:01;;;;;;;58.33;22.37;;;;;;;-6.99;91.41;99734.88;4193975;28;21283;-65
2021/12/28 09:19:28;;;;;;;57.40;22.47;;;;;;;-6.94;91.54;99726.97;4194810;28;20248;-64
2021/12/28 09:21:55;;;;;;;61.77;22.70;;;;;;;-6.90;91.50;99729.41;4191687;28;21377;-67
2021/12/28 09:24:21;;;;;;;63.33;25.53;;;;;;;-6.94;91.27;99720.06;4195108;28;20232;-66
2021/12/28 09:27:05;;;;;;;64.00;23.03;;;;;;;-6.88;91.88;99717.25;4198308;28;20450;-67
2021/12/28 09:29:33;;;;;;;60.73;21.80;;;;;;;-6.87;91.41;99716.34;4205320;28;21372;-65
2021/12/28 09:32:00;;;;;;;61.23;23.17;;;;;;;-6.78;91.90;99698.84;4195757;28;21345;-64
2021/12/28 09:34:27;;;;;;;62.27;22.60;;;;;;;-6.72;91.46;99689.13;4177286;28;20813;-65
2021/12/28 09:36:57;;;;;;;63.37;24.00;;;;;;;-6.65;91.21;99684.56;4215936;28;20237;-65
2021/12/28 09:39:26;;;;;;;60.43;22.13;;;;;;;-6.60;91.85;99686.09;4193198;28;20240;-66
2021/12/28 09:41:54;;;;;;;55.80;23.63;;;;;;;-6.59;91.43;99686.94;4180410;28;20256;-66
2021/12/28 09:44:21;;;;;;;57.73;24.43;;;;;;;-6.56;91.71;99684.22;4199339;28;21291;-65
2021/12/28 09:46:48;;;;;;;61.50;22.27;;;;;;;-6.52;91.55;99683.22;4190562;28;20263;-64
2021/12/28 09:49:15;;;;;;;60.30;23.30;;;;;;;-6.43;91.57;99687.22;4211189;28;20787;-65
2021/12/28 09:51:42;;;;;;;68.13;22.97;;;;;;;-6.33;91.42;99692.91;4183502;28;20228;-64
2021/12/28 09:54:09;;;;;;;61.37;23.43;;;;;;;-6.24;91.26;99697.72;4188475;28;23070;-65
2021/12/28 09:56:36;;;;;;;60.97;23.57;;;;;;;-6.22;90.82;99690.75;4187316;28;24355;-63
2021/12/28 09:59:04;;;;;;;58.53;23.23;;;;;;;-6.24;91.09;99697.72;4211189;28;20236;-65
2021/12/28 10:01:30;;;;;;;54.50;23.20;;;;;;;-6.17;91.29;99688.81;4193480;28;20407;-65
2021/12/28 10:03:59;;;;;;;59.90;22.77;;;;;;;-6.13;91.03;99680.06;4207936;28;20228;-62
2021/12/28 10:06:27;;;;;;;57.40;23.70;;;;;;;-6.15;91.36;99681.84;4188212;28;20236;-66
2021/12/28 10:09:08;;;;;;;58.60;21.83;;;;;;;-6.02;91.35;99688.22;4195453;28;21498;-66
2021/12/28 10:11:37;;;;;;;62.87;23.53;;;;;;;-6.03;91.22;99689.13;4194966;28;20663;-63
2021/12/28 10:14:17;;;;;;;57.40;22.37;;;;;;;-5.95;91.09;99692.31;4194970;28;20394;-64
2021/12/28 10:16:51;;;;;;;55.80;24.00;;;;;;;-5.91;91.22;99680.03;4184932;28;21257;-65
2021/12/28 10:19:38;;;;;;;58.60;21.43;;;;;;;-5.79;90.64;99673.50;4172699;28;20247;-62
2021/12/28 10:22:18;;;;;;;64.33;23.47;;;;;;;-5.81;90.33;99670.97;4188795;28;21308;-64
2021/12/28 10:24:45;;;;;;;62.50;23.67;;;;;;;-5.73;90.57;99668.09;4202255;28;20235;-65
2021/12/28 10:27:18;;;;;;;62.60;24.03;;;;;;;-5.69;90.09;99668.81;4215497;28;20527;-64
2021/12/28 10:29:45;;;;;;;58.87;23.13;;;;;;;-5.65;89.95;99688.50;4190634;28;20422;-68
2021/12/28 10:32:20;;;;;;;60.53;24.27;;;;;;;-5.61;90.32;99682.31;4203383;28;20360;-64
2021/12/28 10:34:55;;;;;;;64.03;24.00;;;;;;;-5.60;90.00;99673.63;4191590;28;20305;-65
2021/12/28 10:37:28;;;;;;;55.50;22.70;;;;;;;-5.59;89.82;99670.97;4200314;28;21711;-65
2021/12/28 10:39:56;;;;;;;54.37;20.77;;;;;;;-5.57;90.07;99661.41;4213798;28;20230;-64
2021/12/28 10:42:45;;;;;;;58.63;23.27;;;;;;;-5.55;89.72;99672.53;4182102;28;21234;-68
2021/12/28 10:45:21;;;;;;;61.40;22.47;;;;;;;-5.41;89.71;99671.13;4237513;28;20247;-65
2021/12/28 10:47:49;;;;;;;53.90;22.43;;;;;;;-5.35;89.17;99668.28;4190005;28;20262;-67
2021/12/28 10:50:23;;;;;;;57.67;23.77;;;;;;;-5.35;88.78;99663.09;4207544;28;20233;-65
2021/12/28 10:52:52;;;;;;;55.37;22.53;;;;;;;-5.33;89.03;99669.06;4189613;28;20293;-64
2021/12/28 10:55:22;;;;;;;58.77;26.10;;;;;;;-5.37;88.73;99670.09;4215838;28;20934;-65
2021/12/28 10:57:49;;;;;;;53.07;23.30;;;;;;;-5.34;88.80;99662.19;4180549;28;20251;-66
2021/12/28 11:00:41;;;;;;;50.70;23.13;;;;;;;-5.31;88.85;99685.41;4187776;28;20231;-67
2021/12/28 11:03:16;;;;;;;56.73;22.00;;;;;;;-5.20;88.36;99687.53;4201009;28;21832;-65
2021/12/28 11:05:48;;;;;;;54.20;22.30;;;;;;;-5.16;88.84;99683.91;4197756;28;20226;-66
2021/12/28 11:08:15;;;;;;;62.17;23.50;;;;;;;-5.18;88.79;99683.97;4206526;28;21331;-64
2021/12/28 11:10:48;;;;;;;54.10;21.47;;;;;;;-5.06;88.57;99682.59;4194700;28;21773;-67
2021/12/28 11:13:19;;;;;;;53.23;24.17;;;;;;;-5.07;88.10;99667.13;4198241;28;23566;-65
2021/12/28 11:15:46;;;;;;;54.30;23.00;;;;;;;-5.16;88.30;99657.97;4187354;28;20247;-67
2021/12/28 11:18:20;;;;;;;58.20;23.47;;;;;;;-5.21;88.31;99650.38;4203344;28;21251;-67
2021/12/28 11:20:48;;;;;;;59.23;23.33;;;;;;;-5.20;89.16;99646.88;4208006;28;20280;-64